sensor_id;sensor_type;location;lat;lon;timestamp;P1;durP1;ratioP1;P2;durP2;ratioP2
16113;SDS011;8161;-33.910;151.156;2023-12-20T00:01:47;5.70;;;1.00;;
16113;SDS011;8161;-33.910;151.156;2023-12-20T00:04:15;6.80;;;1.30;;
16113;SDS011;8161;-33.910;151.156;2023-12-20T00:06:42;5.53;;;1.20;;
16113;SDS011;8161;-33.910;151.156;2023-12-20T00:09:09;7.93;;;1.25;;
16113;SDS011;8161;-33.910;151.156;2023-12-20T00:11:36;9.20;;;1.33;;
16113;SDS011;8161;-33.910;151.156;2023-12-20T00:14:04;5.57;;;1.00;;
16113;SDS011;8161;-33.910;151.156;2023-12-20T00:16:31;7.47;;;1.02;;
16113;SDS011;8161;-33.910;151.156;2023-12-20T00:18:58;6.85;;;1.17;;
16113;SDS011;8161;-33.910;151.156;2023-12-20T00:21:26;6.95;;;1.23;;
16113;SDS011;8161;-33.910;151.156;2023-12-20T00:23:53;7.30;;;1.00;;
16113;SDS011;8161;-33.910;151.156;2023-12-20T00:26:20;9.55;;;2.00;;
16113;SDS011;8161;-33.910;151.156;2023-12-20T00:28:47;4.90;;;1.00;;
16113;SDS011;8161;-33.910;151.156;2023-12-20T00:31:15;5.47;;;1.50;;
16113;SDS011;8161;-33.910;151.156;2023-12-20T00:33:42;6.38;;;1.20;;
16113;SDS011;8161;-33.910;151.156;2023-12-20T00:36:09;5.93;;;1.45;;
16113;SDS011;8161;-33.910;151.156;2023-12-20T00:38:36;5.40;;;1.27;;
16113;SDS011;8161;-33.910;151.156;2023-12-20T00:41:04;5.40;;;1.25;;
16113;SDS011;8161;-33.910;151.156;2023-12-20T00:43:31;5.55;;;1.25;;
16113;SDS011;8161;-33.910;151.156;2023-12-20T00:45:58;5.53;;;1.00;;
16113;SDS011;8161;-33.910;151.156;2023-12-20T00:48:28;3.20;;;0.82;;
16113;SDS011;8161;-33.910;151.156;2023-12-20T00:50:57;6.43;;;1.03;;
16113;SDS011;8161;-33.910;151.156;2023-12-20T00:53:24;7.60;;;1.15;;
16113;SDS011;8161;-33.910;151.156;2023-12-20T00:55:51;3.93;;;0.80;;
16113;SDS011;8161;-33.910;151.156;2023-12-20T00:58:19;4.70;;;1.00;;
16113;SDS011;8161;-33.910;151.156;2023-12-20T01:00:46;5.30;;;0.82;;
16113;SDS011;8161;-33.910;151.156;2023-12-20T01:03:13;7.93;;;1.10;;
16113;SDS011;8161;-33.910;151.156;2023-12-20T01:05:40;4.72;;;0.90;;
16113;SDS011;8161;-33.910;151.156;2023-12-20T01:08:08;5.95;;;1.08;;
16113;SDS011;8161;-33.910;151.156;2023-12-20T01:10:35;7.32;;;1.30;;
16113;SDS011;8161;-33.910;151.156;2023-12-20T01:13:06;5.18;;;0.80;;
16113;SDS011;8161;-33.910;151.156;2023-12-20T01:15:34;5.20;;;0.90;;
16113;SDS011;8161;-33.910;151.156;2023-12-20T01:18:01;4.82;;;1.10;;
16113;SDS011;8161;-33.910;151.156;2023-12-20T01:20:32;5.25;;;0.93;;
16113;SDS011;8161;-33.910;151.156;2023-12-20T01:22:59;4.57;;;0.85;;
16113;SDS011;8161;-33.910;151.156;2023-12-20T01:25:26;8.65;;;1.10;;
16113;SDS011;8161;-33.910;151.156;2023-12-20T01:27:53;6.83;;;1.60;;
16113;SDS011;8161;-33.910;151.156;2023-12-20T01:30:21;4.28;;;1.08;;
16113;SDS011;8161;-33.910;151.156;2023-12-20T01:32:48;6.85;;;1.35;;
16113;SDS011;8161;-33.910;151.156;2023-12-20T01:35:15;5.30;;;1.20;;
16113;SDS011;8161;-33.910;151.156;2023-12-20T01:37:42;6.40;;;1.40;;
16113;SDS011;8161;-33.910;151.156;2023-12-20T01:40:10;4.00;;;1.40;;
16113;SDS011;8161;-33.910;151.156;2023-12-20T01:42:37;5.30;;;1.00;;
16113;SDS011;8161;-33.910;151.156;2023-12-20T01:45:10;7.03;;;1.15;;
16113;SDS011;8161;-33.910;151.156;2023-12-20T01:47:37;7.43;;;1.48;;
16113;SDS011;8161;-33.910;151.156;2023-12-20T01:50:04;6.85;;;1.20;;
16113;SDS011;8161;-33.910;151.156;2023-12-20T01:52:33;10.98;;;1.25;;
16113;SDS011;8161;-33.910;151.156;2023-12-20T01:55:01;7.20;;;1.20;;
16113;SDS011;8161;-33.910;151.156;2023-12-20T01:57:32;5.95;;;1.10;;
16113;SDS011;8161;-33.910;151.156;2023-12-20T01:59:59;6.35;;;1.30;;
16113;SDS011;8161;-33.910;151.156;2023-12-20T02:02:26;8.75;;;1.58;;
16113;SDS011;8161;-33.910;151.156;2023-12-20T02:04:55;3.97;;;1.05;;
16113;SDS011;8161;-33.910;151.156;2023-12-20T02:07:23;7.97;;;1.40;;
16113;SDS011;8161;-33.910;151.156;2023-12-20T02:09:50;7.85;;;1.10;;
16113;SDS011;8161;-33.910;151.156;2023-12-20T02:12:18;5.47;;;1.10;;
16113;SDS011;8161;-33.910;151.156;2023-12-20T02:14:46;7.47;;;1.30;;
16113;SDS011;8161;-33.910;151.156;2023-12-20T02:17:13;7.63;;;1.20;;
16113;SDS011;8161;-33.910;151.156;2023-12-20T02:19:41;6.07;;;1.02;;
16113;SDS011;8161;-33.910;151.156;2023-12-20T02:22:10;8.82;;;1.20;;
16113;SDS011;8161;-33.910;151.156;2023-12-20T02:24:37;5.30;;;0.90;;
16113;SDS011;8161;-33.910;151.156;2023-12-20T02:27:05;5.97;;;1.38;;
16113;SDS011;8161;-33.910;151.156;2023-12-20T02:29:36;5.63;;;0.95;;
16113;SDS011;8161;-33.910;151.156;2023-12-20T02:32:03;5.80;;;1.00;;
16113;SDS011;8161;-33.910;151.156;2023-12-20T02:34:31;7.37;;;1.43;;
16113;SDS011;8161;-33.910;151.156;2023-12-20T02:36:58;8.18;;;1.02;;
16113;SDS011;8161;-33.910;151.156;2023-12-20T02:39:25;7.03;;;1.10;;
16113;SDS011;8161;-33.910;151.156;2023-12-20T02:41:53;5.78;;;1.20;;
16113;SDS011;8161;-33.910;151.156;2023-12-20T02:44:20;7.22;;;1.10;;
16113;SDS011;8161;-33.910;151.156;2023-12-20T02:46:47;8.25;;;1.30;;
16113;SDS011;8161;-33.910;151.156;2023-12-20T02:49:15;6.40;;;1.00;;
16113;SDS011;8161;-33.910;151.156;2023-12-20T02:51:42;6.50;;;0.98;;
16113;SDS011;8161;-33.910;151.156;2023-12-20T02:54:09;5.43;;;1.00;;
16113;SDS011;8161;-33.910;151.156;2023-12-20T02:56:36;5.72;;;1.20;;
16113;SDS011;8161;-33.910;151.156;2023-12-20T02:59:04;6.50;;;1.17;;
16113;SDS011;8161;-33.910;151.156;2023-12-20T03:01:31;6.47;;;1.30;;
16113;SDS011;8161;-33.910;151.156;2023-12-20T03:03:58;5.50;;;1.10;;
16113;SDS011;8161;-33.910;151.156;2023-12-20T03:06:26;4.90;;;0.93;;
16113;SDS011;8161;-33.910;151.156;2023-12-20T03:08:53;5.38;;;1.10;;
16113;SDS011;8161;-33.910;151.156;2023-12-20T03:11:20;4.20;;;0.80;;
16113;SDS011;8161;-33.910;151.156;2023-12-20T03:13:48;4.20;;;1.00;;
16113;SDS011;8161;-33.910;151.156;2023-12-20T03:16:15;4.85;;;0.90;;
16113;SDS011;8161;-33.910;151.156;2023-12-20T03:18:42;8.98;;;1.33;;
16113;SDS011;8161;-33.910;151.156;2023-12-20T03:21:10;5.90;;;1.23;;
16113;SDS011;8161;-33.910;151.156;2023-12-20T03:23:37;5.30;;;1.00;;
16113;SDS011;8161;-33.910;151.156;2023-12-20T03:26:06;7.55;;;1.27;;
16113;SDS011;8161;-33.910;151.156;2023-12-20T03:28:34;7.40;;;1.20;;
16113;SDS011;8161;-33.910;151.156;2023-12-20T03:31:03;8.02;;;1.10;;
16113;SDS011;8161;-33.910;151.156;2023-12-20T03:33:30;8.40;;;1.23;;
16113;SDS011;8161;-33.910;151.156;2023-12-20T03:35:57;7.15;;;1.48;;
16113;SDS011;8161;-33.910;151.156;2023-12-20T03:38:24;7.78;;;1.48;;
16113;SDS011;8161;-33.910;151.156;2023-12-20T03:40:53;8.93;;;1.42;;
16113;SDS011;8161;-33.910;151.156;2023-12-20T03:43:20;7.15;;;1.58;;
16113;SDS011;8161;-33.910;151.156;2023-12-20T03:45:48;9.20;;;1.20;;
16113;SDS011;8161;-33.910;151.156;2023-12-20T03:48:15;6.65;;;1.15;;
16113;SDS011;8161;-33.910;151.156;2023-12-20T03:50:43;6.15;;;1.20;;
16113;SDS011;8161;-33.910;151.156;2023-12-20T03:53:10;4.68;;;1.17;;
16113;SDS011;8161;-33.910;151.156;2023-12-20T03:55:37;6.43;;;1.33;;
16113;SDS011;8161;-33.910;151.156;2023-12-20T03:58:04;4.97;;;0.73;;
16113;SDS011;8161;-33.910;151.156;2023-12-20T04:00:32;4.10;;;0.70;;
16113;SDS011;8161;-33.910;151.156;2023-12-20T04:02:59;4.83;;;0.87;;
16113;SDS011;8161;-33.910;151.156;2023-12-20T04:05:27;5.68;;;0.90;;
16113;SDS011;8161;-33.910;151.156;2023-12-20T04:07:54;5.47;;;0.90;;
16113;SDS011;8161;-33.910;151.156;2023-12-20T04:10:21;2.65;;;0.88;;
16113;SDS011;8161;-33.910;151.156;2023-12-20T04:12:48;6.93;;;1.10;;
16113;SDS011;8161;-33.910;151.156;2023-12-20T04:15:15;5.40;;;0.80;;
16113;SDS011;8161;-33.910;151.156;2023-12-20T04:17:45;1.83;;;0.52;;
16113;SDS011;8161;-33.910;151.156;2023-12-20T04:20:13;4.03;;;0.80;;
16113;SDS011;8161;-33.910;151.156;2023-12-20T04:22:40;2.93;;;0.70;;
16113;SDS011;8161;-33.910;151.156;2023-12-20T04:25:08;4.32;;;0.60;;
16113;SDS011;8161;-33.910;151.156;2023-12-20T04:27:35;1.73;;;0.50;;
16113;SDS011;8161;-33.910;151.156;2023-12-20T04:30:02;2.25;;;0.70;;
16113;SDS011;8161;-33.910;151.156;2023-12-20T04:32:30;3.30;;;0.70;;
16113;SDS011;8161;-33.910;151.156;2023-12-20T04:35:00;3.28;;;0.75;;
16113;SDS011;8161;-33.910;151.156;2023-12-20T04:37:27;6.43;;;1.00;;
16113;SDS011;8161;-33.910;151.156;2023-12-20T04:39:55;4.70;;;0.73;;
16113;SDS011;8161;-33.910;151.156;2023-12-20T04:42:22;4.18;;;0.75;;
16113;SDS011;8161;-33.910;151.156;2023-12-20T04:44:49;3.38;;;0.70;;
16113;SDS011;8161;-33.910;151.156;2023-12-20T04:47:16;4.20;;;0.90;;
16113;SDS011;8161;-33.910;151.156;2023-12-20T04:49:44;4.88;;;0.80;;
16113;SDS011;8161;-33.910;151.156;2023-12-20T04:52:11;5.68;;;1.00;;
16113;SDS011;8161;-33.910;151.156;2023-12-20T04:54:38;3.22;;;0.88;;
16113;SDS011;8161;-33.910;151.156;2023-12-20T04:57:05;5.13;;;1.40;;
16113;SDS011;8161;-33.910;151.156;2023-12-20T04:59:33;6.03;;;1.10;;
16113;SDS011;8161;-33.910;151.156;2023-12-20T05:02:00;4.38;;;0.82;;
16113;SDS011;8161;-33.910;151.156;2023-12-20T05:04:27;5.05;;;0.88;;
16113;SDS011;8161;-33.910;151.156;2023-12-20T05:06:54;6.07;;;0.80;;
16113;SDS011;8161;-33.910;151.156;2023-12-20T05:09:22;3.13;;;0.82;;
16113;SDS011;8161;-33.910;151.156;2023-12-20T05:11:49;3.47;;;0.98;;
16113;SDS011;8161;-33.910;151.156;2023-12-20T05:14:16;5.40;;;0.82;;
16113;SDS011;8161;-33.910;151.156;2023-12-20T05:16:43;4.70;;;0.73;;
16113;SDS011;8161;-33.910;151.156;2023-12-20T05:19:11;4.57;;;0.87;;
16113;SDS011;8161;-33.910;151.156;2023-12-20T05:21:39;8.23;;;1.02;;
16113;SDS011;8161;-33.910;151.156;2023-12-20T05:24:07;4.57;;;0.80;;
16113;SDS011;8161;-33.910;151.156;2023-12-20T05:26:34;6.72;;;0.93;;
16113;SDS011;8161;-33.910;151.156;2023-12-20T05:29:01;4.57;;;0.90;;
16113;SDS011;8161;-33.910;151.156;2023-12-20T05:31:29;7.38;;;1.00;;
16113;SDS011;8161;-33.910;151.156;2023-12-20T05:33:57;6.63;;;1.20;;
16113;SDS011;8161;-33.910;151.156;2023-12-20T05:36:24;5.10;;;1.00;;
16113;SDS011;8161;-33.910;151.156;2023-12-20T05:38:51;3.50;;;0.70;;
16113;SDS011;8161;-33.910;151.156;2023-12-20T05:41:19;5.15;;;1.00;;
16113;SDS011;8161;-33.910;151.156;2023-12-20T05:43:47;4.35;;;1.00;;
16113;SDS011;8161;-33.910;151.156;2023-12-20T05:46:14;5.30;;;1.10;;
16113;SDS011;8161;-33.910;151.156;2023-12-20T05:48:41;7.15;;;1.05;;
16113;SDS011;8161;-33.910;151.156;2023-12-20T05:51:11;6.25;;;1.25;;
16113;SDS011;8161;-33.910;151.156;2023-12-20T05:53:39;9.63;;;1.10;;
16113;SDS011;8161;-33.910;151.156;2023-12-20T05:56:06;5.35;;;1.02;;
16113;SDS011;8161;-33.910;151.156;2023-12-20T05:58:33;7.18;;;1.17;;
16113;SDS011;8161;-33.910;151.156;2023-12-20T06:01:01;4.18;;;1.05;;
16113;SDS011;8161;-33.910;151.156;2023-12-20T06:03:31;5.47;;;1.13;;
16113;SDS011;8161;-33.910;151.156;2023-12-20T06:05:58;6.65;;;1.00;;
16113;SDS011;8161;-33.910;151.156;2023-12-20T06:08:30;5.93;;;1.00;;
16113;SDS011;8161;-33.910;151.156;2023-12-20T06:10:57;4.63;;;0.90;;
16113;SDS011;8161;-33.910;151.156;2023-12-20T06:13:24;5.20;;;1.13;;
16113;SDS011;8161;-33.910;151.156;2023-12-20T06:15:54;6.13;;;1.20;;
16113;SDS011;8161;-33.910;151.156;2023-12-20T06:18:21;5.60;;;1.10;;
16113;SDS011;8161;-33.910;151.156;2023-12-20T06:20:50;5.20;;;0.90;;
16113;SDS011;8161;-33.910;151.156;2023-12-20T06:23:17;6.40;;;1.48;;
16113;SDS011;8161;-33.910;151.156;2023-12-20T06:25:44;5.63;;;1.15;;
16113;SDS011;8161;-33.910;151.156;2023-12-20T06:28:12;5.60;;;1.10;;
16113;SDS011;8161;-33.910;151.156;2023-12-20T06:30:40;7.47;;;1.30;;
16113;SDS011;8161;-33.910;151.156;2023-12-20T06:33:07;5.70;;;1.40;;
16113;SDS011;8161;-33.910;151.156;2023-12-20T06:35:36;5.93;;;1.20;;
16113;SDS011;8161;-33.910;151.156;2023-12-20T06:38:04;4.53;;;0.90;;
16113;SDS011;8161;-33.910;151.156;2023-12-20T06:40:31;7.20;;;1.00;;
16113;SDS011;8161;-33.910;151.156;2023-12-20T06:42:58;6.32;;;1.40;;
16113;SDS011;8161;-33.910;151.156;2023-12-20T06:45:26;4.38;;;0.80;;
16113;SDS011;8161;-33.910;151.156;2023-12-20T06:47:53;8.82;;;2.10;;
16113;SDS011;8161;-33.910;151.156;2023-12-20T06:50:24;7.50;;;1.35;;
16113;SDS011;8161;-33.910;151.156;2023-12-20T06:52:51;5.07;;;1.10;;
16113;SDS011;8161;-33.910;151.156;2023-12-20T06:55:18;4.40;;;1.00;;
16113;SDS011;8161;-33.910;151.156;2023-12-20T06:57:46;6.40;;;1.10;;
16113;SDS011;8161;-33.910;151.156;2023-12-20T07:00:13;5.97;;;1.30;;
16113;SDS011;8161;-33.910;151.156;2023-12-20T07:02:40;9.33;;;1.40;;
16113;SDS011;8161;-33.910;151.156;2023-12-20T07:05:08;7.60;;;1.60;;
16113;SDS011;8161;-33.910;151.156;2023-12-20T07:07:35;7.03;;;1.65;;
16113;SDS011;8161;-33.910;151.156;2023-12-20T07:10:02;7.50;;;1.27;;
16113;SDS011;8161;-33.910;151.156;2023-12-20T07:12:30;10.40;;;1.90;;
16113;SDS011;8161;-33.910;151.156;2023-12-20T07:14:57;4.72;;;1.20;;
16113;SDS011;8161;-33.910;151.156;2023-12-20T07:17:24;6.75;;;1.40;;
16113;SDS011;8161;-33.910;151.156;2023-12-20T07:19:51;6.15;;;1.50;;
16113;SDS011;8161;-33.910;151.156;2023-12-20T07:22:19;6.13;;;1.35;;
16113;SDS011;8161;-33.910;151.156;2023-12-20T07:24:46;6.32;;;1.50;;
16113;SDS011;8161;-33.910;151.156;2023-12-20T07:27:15;5.82;;;1.42;;
16113;SDS011;8161;-33.910;151.156;2023-12-20T07:29:42;6.43;;;1.65;;
16113;SDS011;8161;-33.910;151.156;2023-12-20T07:32:09;6.55;;;1.58;;
16113;SDS011;8161;-33.910;151.156;2023-12-20T07:34:37;6.25;;;1.45;;
16113;SDS011;8161;-33.910;151.156;2023-12-20T07:37:04;5.75;;;1.30;;
16113;SDS011;8161;-33.910;151.156;2023-12-20T07:39:35;6.50;;;1.40;;
16113;SDS011;8161;-33.910;151.156;2023-12-20T07:42:03;8.93;;;1.80;;
16113;SDS011;8161;-33.910;151.156;2023-12-20T07:44:31;6.95;;;1.33;;
16113;SDS011;8161;-33.910;151.156;2023-12-20T07:46:58;5.18;;;1.30;;
16113;SDS011;8161;-33.910;151.156;2023-12-20T07:49:26;4.93;;;1.30;;
16113;SDS011;8161;-33.910;151.156;2023-12-20T07:51:54;7.10;;;1.27;;
16113;SDS011;8161;-33.910;151.156;2023-12-20T07:54:21;5.85;;;1.33;;
16113;SDS011;8161;-33.910;151.156;2023-12-20T07:56:48;5.40;;;1.15;;
16113;SDS011;8161;-33.910;151.156;2023-12-20T07:59:16;6.43;;;1.57;;
16113;SDS011;8161;-33.910;151.156;2023-12-20T08:01:43;5.55;;;1.10;;
16113;SDS011;8161;-33.910;151.156;2023-12-20T08:04:10;7.38;;;1.50;;
16113;SDS011;8161;-33.910;151.156;2023-12-20T08:06:40;5.22;;;1.08;;
16113;SDS011;8161;-33.910;151.156;2023-12-20T08:09:08;5.43;;;1.17;;
16113;SDS011;8161;-33.910;151.156;2023-12-20T08:11:35;6.55;;;1.13;;
16113;SDS011;8161;-33.910;151.156;2023-12-20T08:14:03;5.60;;;1.55;;
16113;SDS011;8161;-33.910;151.156;2023-12-20T08:16:30;4.55;;;1.30;;
16113;SDS011;8161;-33.910;151.156;2023-12-20T08:18:57;6.07;;;1.55;;
16113;SDS011;8161;-33.910;151.156;2023-12-20T08:21:25;6.22;;;1.45;;
16113;SDS011;8161;-33.910;151.156;2023-12-20T08:23:53;5.60;;;1.20;;
16113;SDS011;8161;-33.910;151.156;2023-12-20T08:26:23;5.68;;;1.05;;
16113;SDS011;8161;-33.910;151.156;2023-12-20T08:28:50;4.43;;;1.30;;
16113;SDS011;8161;-33.910;151.156;2023-12-20T08:31:17;5.32;;;1.45;;
16113;SDS011;8161;-33.910;151.156;2023-12-20T08:33:46;6.53;;;1.42;;
16113;SDS011;8161;-33.910;151.156;2023-12-20T08:36:16;7.10;;;1.10;;
16113;SDS011;8161;-33.910;151.156;2023-12-20T08:38:44;6.78;;;1.30;;
16113;SDS011;8161;-33.910;151.156;2023-12-20T08:41:11;5.47;;;1.20;;
16113;SDS011;8161;-33.910;151.156;2023-12-20T08:43:38;5.55;;;1.23;;
16113;SDS011;8161;-33.910;151.156;2023-12-20T08:46:06;9.52;;;1.30;;
16113;SDS011;8161;-33.910;151.156;2023-12-20T08:48:35;5.30;;;1.40;;
16113;SDS011;8161;-33.910;151.156;2023-12-20T08:51:05;8.23;;;1.60;;
16113;SDS011;8161;-33.910;151.156;2023-12-20T08:53:34;5.40;;;1.60;;
16113;SDS011;8161;-33.910;151.156;2023-12-20T08:56:01;5.72;;;1.23;;
16113;SDS011;8161;-33.910;151.156;2023-12-20T08:58:28;6.27;;;1.20;;
16113;SDS011;8161;-33.910;151.156;2023-12-20T09:00:56;5.43;;;1.50;;
16113;SDS011;8161;-33.910;151.156;2023-12-20T09:03:26;6.88;;;1.40;;
16113;SDS011;8161;-33.910;151.156;2023-12-20T09:05:53;5.00;;;1.20;;
16113;SDS011;8161;-33.910;151.156;2023-12-20T09:08:23;11.13;;;2.05;;
16113;SDS011;8161;-33.910;151.156;2023-12-20T09:10:51;6.78;;;1.45;;
16113;SDS011;8161;-33.910;151.156;2023-12-20T09:13:18;11.98;;;1.88;;
16113;SDS011;8161;-33.910;151.156;2023-12-20T09:15:46;4.13;;;1.30;;
16113;SDS011;8161;-33.910;151.156;2023-12-20T09:18:13;6.53;;;1.30;;
16113;SDS011;8161;-33.910;151.156;2023-12-20T09:20:43;8.23;;;1.50;;
16113;SDS011;8161;-33.910;151.156;2023-12-20T09:23:10;4.97;;;1.40;;
16113;SDS011;8161;-33.910;151.156;2023-12-20T09:25:38;5.85;;;1.63;;
16113;SDS011;8161;-33.910;151.156;2023-12-20T09:28:05;5.60;;;1.27;;
16113;SDS011;8161;-33.910;151.156;2023-12-20T09:30:32;5.05;;;1.10;;
16113;SDS011;8161;-33.910;151.156;2023-12-20T09:33:01;4.60;;;1.20;;
16113;SDS011;8161;-33.910;151.156;2023-12-20T09:35:29;5.32;;;1.20;;
16113;SDS011;8161;-33.910;151.156;2023-12-20T09:37:56;6.35;;;1.55;;
16113;SDS011;8161;-33.910;151.156;2023-12-20T09:40:26;6.95;;;1.95;;
16113;SDS011;8161;-33.910;151.156;2023-12-20T09:42:57;7.68;;;1.75;;
16113;SDS011;8161;-33.910;151.156;2023-12-20T09:45:29;8.52;;;1.52;;
16113;SDS011;8161;-33.910;151.156;2023-12-20T09:47:58;5.78;;;1.65;;
16113;SDS011;8161;-33.910;151.156;2023-12-20T09:50:25;8.95;;;2.42;;
16113;SDS011;8161;-33.910;151.156;2023-12-20T09:52:53;7.72;;;1.73;;
16113;SDS011;8161;-33.910;151.156;2023-12-20T09:55:25;6.90;;;2.00;;
16113;SDS011;8161;-33.910;151.156;2023-12-20T09:57:54;7.68;;;1.95;;
16113;SDS011;8161;-33.910;151.156;2023-12-20T10:00:21;8.63;;;1.63;;
16113;SDS011;8161;-33.910;151.156;2023-12-20T10:02:58;5.60;;;1.30;;
16113;SDS011;8161;-33.910;151.156;2023-12-20T10:05:32;7.10;;;1.20;;
16113;SDS011;8161;-33.910;151.156;2023-12-20T10:08:00;7.25;;;1.77;;
16113;SDS011;8161;-33.910;151.156;2023-12-20T10:10:31;7.45;;;1.45;;
16113;SDS011;8161;-33.910;151.156;2023-12-20T10:13:01;5.88;;;1.52;;
16113;SDS011;8161;-33.910;151.156;2023-12-20T10:15:34;9.10;;;1.90;;
16113;SDS011;8161;-33.910;151.156;2023-12-20T10:18:02;6.20;;;1.63;;
16113;SDS011;8161;-33.910;151.156;2023-12-20T10:20:31;8.63;;;2.08;;
16113;SDS011;8161;-33.910;151.156;2023-12-20T10:22:58;5.03;;;1.38;;
16113;SDS011;8161;-33.910;151.156;2023-12-20T10:25:27;5.25;;;1.27;;
16113;SDS011;8161;-33.910;151.156;2023-12-20T10:30:35;4.93;;;1.30;;
16113;SDS011;8161;-33.910;151.156;2023-12-20T10:33:02;5.72;;;1.25;;
16113;SDS011;8161;-33.910;151.156;2023-12-20T10:35:31;4.85;;;1.58;;
16113;SDS011;8161;-33.910;151.156;2023-12-20T10:37:58;6.38;;;1.55;;
16113;SDS011;8161;-33.910;151.156;2023-12-20T10:40:31;8.93;;;1.70;;
16113;SDS011;8161;-33.910;151.156;2023-12-20T10:43:04;6.95;;;1.42;;
16113;SDS011;8161;-33.910;151.156;2023-12-20T10:45:32;6.53;;;1.80;;
16113;SDS011;8161;-33.910;151.156;2023-12-20T10:48:00;7.07;;;1.88;;
16113;SDS011;8161;-33.910;151.156;2023-12-20T10:50:29;6.68;;;1.80;;
16113;SDS011;8161;-33.910;151.156;2023-12-20T10:52:57;5.47;;;1.50;;
16113;SDS011;8161;-33.910;151.156;2023-12-20T10:55:25;6.78;;;1.95;;
16113;SDS011;8161;-33.910;151.156;2023-12-20T10:57:54;3.60;;;1.20;;
16113;SDS011;8161;-33.910;151.156;2023-12-20T11:00:29;5.57;;;1.55;;
16113;SDS011;8161;-33.910;151.156;2023-12-20T11:03:00;3.70;;;1.33;;
16113;SDS011;8161;-33.910;151.156;2023-12-20T11:14:03;5.43;;;1.60;;
16113;SDS011;8161;-33.910;151.156;2023-12-20T11:16:37;5.70;;;1.52;;
16113;SDS011;8161;-33.910;151.156;2023-12-20T11:19:05;6.45;;;1.52;;
16113;SDS011;8161;-33.910;151.156;2023-12-20T11:21:33;5.43;;;1.27;;
16113;SDS011;8161;-33.910;151.156;2023-12-20T11:24:00;3.70;;;1.00;;
16113;SDS011;8161;-33.910;151.156;2023-12-20T11:26:29;6.85;;;1.00;;
16113;SDS011;8161;-33.910;151.156;2023-12-20T11:31:52;4.50;;;0.98;;
16113;SDS011;8161;-33.910;151.156;2023-12-20T11:34:21;5.10;;;1.13;;
16113;SDS011;8161;-33.910;151.156;2023-12-20T11:36:59;3.05;;;0.93;;
16113;SDS011;8161;-33.910;151.156;2023-12-20T11:39:28;3.45;;;1.23;;
16113;SDS011;8161;-33.910;151.156;2023-12-20T11:41:56;5.97;;;1.57;;
16113;SDS011;8161;-33.910;151.156;2023-12-20T11:44:29;5.78;;;1.00;;
16113;SDS011;8161;-33.910;151.156;2023-12-20T11:46:58;6.38;;;1.10;;
16113;SDS011;8161;-33.910;151.156;2023-12-20T11:49:28;5.15;;;1.10;;
16113;SDS011;8161;-33.910;151.156;2023-12-20T11:51:56;2.55;;;0.90;;
16113;SDS011;8161;-33.910;151.156;2023-12-20T11:54:25;2.80;;;0.93;;
16113;SDS011;8161;-33.910;151.156;2023-12-20T11:56:52;5.40;;;1.20;;
16113;SDS011;8161;-33.910;151.156;2023-12-20T11:59:20;4.05;;;0.90;;
16113;SDS011;8161;-33.910;151.156;2023-12-20T12:01:48;4.10;;;1.15;;
16113;SDS011;8161;-33.910;151.156;2023-12-20T12:04:20;4.18;;;1.10;;
16113;SDS011;8161;-33.910;151.156;2023-12-20T12:06:47;3.63;;;0.90;;
16113;SDS011;8161;-33.910;151.156;2023-12-20T12:09:14;6.03;;;1.00;;
16113;SDS011;8161;-33.910;151.156;2023-12-20T12:11:42;5.72;;;1.20;;
16113;SDS011;8161;-33.910;151.156;2023-12-20T12:14:10;5.80;;;0.80;;
16113;SDS011;8161;-33.910;151.156;2023-12-20T12:16:37;2.72;;;0.80;;
16113;SDS011;8161;-33.910;151.156;2023-12-20T12:19:19;3.15;;;1.20;;
16113;SDS011;8161;-33.910;151.156;2023-12-20T12:21:50;2.35;;;0.93;;
16113;SDS011;8161;-33.910;151.156;2023-12-20T12:24:36;3.57;;;0.77;;
16113;SDS011;8161;-33.910;151.156;2023-12-20T12:27:06;3.13;;;0.90;;
16113;SDS011;8161;-33.910;151.156;2023-12-20T12:29:34;3.20;;;1.08;;
16113;SDS011;8161;-33.910;151.156;2023-12-20T12:32:08;1.65;;;0.90;;
16113;SDS011;8161;-33.910;151.156;2023-12-20T12:34:36;4.25;;;1.17;;
16113;SDS011;8161;-33.910;151.156;2023-12-20T12:37:03;3.53;;;1.40;;
16113;SDS011;8161;-33.910;151.156;2023-12-20T12:39:31;3.35;;;1.38;;
16113;SDS011;8161;-33.910;151.156;2023-12-20T12:41:58;2.20;;;1.05;;
16113;SDS011;8161;-33.910;151.156;2023-12-20T12:44:26;3.38;;;1.27;;
16113;SDS011;8161;-33.910;151.156;2023-12-20T12:46:53;4.22;;;1.10;;
16113;SDS011;8161;-33.910;151.156;2023-12-20T12:49:20;3.40;;;1.02;;
16113;SDS011;8161;-33.910;151.156;2023-12-20T12:51:48;1.77;;;0.80;;
16113;SDS011;8161;-33.910;151.156;2023-12-20T12:54:15;4.28;;;0.80;;
16113;SDS011;8161;-33.910;151.156;2023-12-20T12:56:44;2.45;;;0.70;;
16113;SDS011;8161;-33.910;151.156;2023-12-20T12:59:16;3.80;;;0.80;;
16113;SDS011;8161;-33.910;151.156;2023-12-20T13:01:43;2.90;;;0.68;;
16113;SDS011;8161;-33.910;151.156;2023-12-20T13:04:10;2.67;;;0.60;;
16113;SDS011;8161;-33.910;151.156;2023-12-20T13:06:38;3.35;;;0.80;;
16113;SDS011;8161;-33.910;151.156;2023-12-20T13:09:07;3.55;;;0.95;;
16113;SDS011;8161;-33.910;151.156;2023-12-20T13:11:37;4.50;;;0.70;;
16113;SDS011;8161;-33.910;151.156;2023-12-20T13:14:05;4.03;;;0.85;;
16113;SDS011;8161;-33.910;151.156;2023-12-20T13:16:36;2.30;;;1.10;;
16113;SDS011;8161;-33.910;151.156;2023-12-20T13:19:03;2.58;;;0.60;;
16113;SDS011;8161;-33.910;151.156;2023-12-20T13:21:30;4.18;;;0.73;;
16113;SDS011;8161;-33.910;151.156;2023-12-20T13:23:58;3.58;;;0.70;;
16113;SDS011;8161;-33.910;151.156;2023-12-20T13:26:25;3.38;;;0.60;;
16113;SDS011;8161;-33.910;151.156;2023-12-20T13:28:53;2.03;;;0.70;;
16113;SDS011;8161;-33.910;151.156;2023-12-20T13:31:21;2.13;;;0.63;;
16113;SDS011;8161;-33.910;151.156;2023-12-20T13:33:48;3.17;;;0.60;;
16113;SDS011;8161;-33.910;151.156;2023-12-20T13:36:15;2.83;;;0.60;;
16113;SDS011;8161;-33.910;151.156;2023-12-20T13:38:43;2.00;;;0.60;;
16113;SDS011;8161;-33.910;151.156;2023-12-20T13:41:10;4.57;;;0.60;;
16113;SDS011;8161;-33.910;151.156;2023-12-20T13:43:38;2.75;;;0.63;;
16113;SDS011;8161;-33.910;151.156;2023-12-20T13:46:05;1.92;;;0.50;;
16113;SDS011;8161;-33.910;151.156;2023-12-20T13:48:35;2.00;;;0.60;;
16113;SDS011;8161;-33.910;151.156;2023-12-20T13:51:03;1.58;;;0.50;;
16113;SDS011;8161;-33.910;151.156;2023-12-20T13:53:31;3.60;;;0.80;;
16113;SDS011;8161;-33.910;151.156;2023-12-20T13:55:59;1.73;;;0.60;;
16113;SDS011;8161;-33.910;151.156;2023-12-20T13:58:26;3.97;;;0.77;;
16113;SDS011;8161;-33.910;151.156;2023-12-20T14:00:54;2.33;;;0.60;;
16113;SDS011;8161;-33.910;151.156;2023-12-20T14:03:21;1.95;;;0.52;;
16113;SDS011;8161;-33.910;151.156;2023-12-20T14:05:51;2.05;;;0.50;;
16113;SDS011;8161;-33.910;151.156;2023-12-20T14:08:18;1.17;;;0.50;;
16113;SDS011;8161;-33.910;151.156;2023-12-20T14:10:46;1.10;;;0.45;;
16113;SDS011;8161;-33.910;151.156;2023-12-20T14:13:13;1.70;;;0.55;;
16113;SDS011;8161;-33.910;151.156;2023-12-20T14:15:40;2.90;;;0.60;;
16113;SDS011;8161;-33.910;151.156;2023-12-20T14:18:10;2.13;;;0.50;;
16113;SDS011;8161;-33.910;151.156;2023-12-20T14:20:43;1.63;;;0.60;;
16113;SDS011;8161;-33.910;151.156;2023-12-20T14:23:16;2.20;;;0.50;;
16113;SDS011;8161;-33.910;151.156;2023-12-20T14:25:43;2.65;;;0.52;;
16113;SDS011;8161;-33.910;151.156;2023-12-20T14:28:14;2.30;;;0.52;;
16113;SDS011;8161;-33.910;151.156;2023-12-20T14:30:42;1.85;;;0.60;;
16113;SDS011;8161;-33.910;151.156;2023-12-20T14:33:09;2.17;;;0.50;;
16113;SDS011;8161;-33.910;151.156;2023-12-20T14:35:36;2.67;;;0.70;;
16113;SDS011;8161;-33.910;151.156;2023-12-20T14:38:03;1.70;;;0.70;;
16113;SDS011;8161;-33.910;151.156;2023-12-20T14:40:31;2.05;;;0.60;;